Time;durP1;ratioP1;P1;durP2;ratioP2;P2;SDS_P1;SDS_P2;PMS_P1;PMS_P2;Temp;Humidity;BMP_temperature;BMP_pressure;BME280_temperature;BME280_humidity;BME280_pressure;Samples;Min_cycle;Max_cycle;Signal;HPM_P1;HPM_P2
2023/08/05 00:17:55;;;;;;;;;;;;;;;;;;;;;
2023/08/05 00:29:19;;;;;;;6.75;1.80;;;;;;;;;;6123718;23;20038;-82
2023/08/05 00:32:08;;;;;;;5.95;1.70;;;;;;;;;;6096297;23;20085;-82
2023/08/05 00:34:37;;;;;;;6.85;2.17;;;;;;;;;;6122148;23;20021;-82
2023/08/05 00:37:38;;;;;;;9.40;1.95;;;;;;;;;;6096447;23;20018;-82
2023/08/05 01:05:17;;;;;;;4.45;2.40;;;;;;;;;;6121781;23;20056;-82
2023/08/05 01:35:09;;;;;;;6.57;2.67;;;;;;;;;;6178120;23;20540;-84
2023/08/05 01:44:09;;;;;;;6.28;2.72;;;;;;;;;;6090198;23;20021;-83
2023/08/05 01:46:55;;;;;;;6.38;2.60;;;;;;;;;;6149278;23;20112;-84
2023/08/05 01:49:29;;;;;;;8.45;2.92;;;;;;;;;;6152693;23;20040;-83
2023/08/05 01:52:13;;;;;;;8.80;2.67;;;;;;;;;;6154030;23;20550;-83
2023/08/05 02:01:21;;;;;;;;;;;;;;;;;;;;;
2023/08/05 02:11:05;;;;;;;;;;;;;;;;;;;;;
2023/08/05 02:14:25;;;;;;;5.05;2.47;;;;;;;;;;6175216;23;20095;-84
2023/08/05 02:20:15;;;;;;;6.03;2.53;;;;;;;;;;6149874;23;20463;-84
2023/08/05 02:43:31;;;;;;;;;;;;;;;;;;;;;
2023/08/05 02:50:07;;;;;;;8.90;2.40;;;;;;;;;;6092290;23;20090;-83
2023/08/05 03:16:02;;;;;;;5.60;2.95;;;;;;;;;;6120014;23;20458;-83
2023/08/05 03:29:47;;;;;;;6.28;2.78;;;;;;;;;;6088034;23;20030;-83
2023/08/05 03:35:43;;;;;;;4.93;2.60;;;;;;;;;;6034063;23;20010;-83
2023/08/05 03:38:17;;;;;;;4.65;2.85;;;;;;;;;;6067856;23;20093;-84
2023/08/05 03:41:09;;;;;;;6.90;2.30;;;;;;;;;;6067505;23;20015;-83
2023/08/05 03:47:27;;;;;;;6.05;2.63;;;;;;;;;;6088632;23;20022;-83
2023/08/05 03:50:08;;;;;;;8.75;2.90;;;;;;;;;;6062087;23;20027;-82
2023/08/05 03:52:39;;;;;;;7.10;2.13;;;;;;;;;;6063472;23;20384;-83
2023/08/05 03:55:08;;;;;;;5.80;2.50;;;;;;;;;;6061119;23;20054;-83
2023/08/05 03:57:34;;;;;;;5.55;2.65;;;;;;;;;;6037666;23;20022;-83
2023/08/05 04:00:09;;;;;;;6.03;3.05;;;;;;;;;;6038029;23;20017;-83
2023/08/05 04:02:55;;;;;;;6.03;2.53;;;;;;;;;;6037455;23;20010;-83
2023/08/05 04:05:21;;;;;;;9.82;3.25;;;;;;;;;;6016367;23;20106;-82
2023/08/05 04:07:47;;;;;;;4.65;2.65;;;;;;;;;;6063475;23;20082;-82
2023/08/05 04:10:21;;;;;;;8.52;3.28;;;;;;;;;;6065342;23;20471;-83
2023/08/05 04:12:56;;;;;;;5.43;3.22;;;;;;;;;;6063267;23;20018;-83
2023/08/05 04:18:46;;;;;;;5.10;3.45;;;;;;;;;;5976614;24;20068;-83
2023/08/05 04:50:15;;;;;;;4.63;2.63;;;;;;;;;;6075714;23;20074;-86
2023/08/05 04:52:41;;;;;;;8.52;3.65;;;;;;;;;;6082427;23;20014;-84
2023/08/05 04:55:08;;;;;;;5.35;3.03;;;;;;;;;;6067450;23;20346;-84
2023/08/05 04:57:35;;;;;;;12.45;3.40;;;;;;;;;;6093917;23;20007;-84
2023/08/05 05:00:01;;;;;;;8.32;3.50;;;;;;;;;;6067953;23;20089;-84
2023/08/05 05:02:27;;;;;;;5.35;3.30;;;;;;;;;;6093296;23;20010;-84
2023/08/05 05:04:53;;;;;;;6.15;3.10;;;;;;;;;;6067635;23;20585;-84
2023/08/05 05:07:19;;;;;;;6.65;3.20;;;;;;;;;;6067708;23;20093;-84
2023/08/05 05:09:45;;;;;;;6.35;3.33;;;;;;;;;;6096174;23;20105;-84
2023/08/05 05:12:11;;;;;;;6.20;3.70;;;;;;;;;;6095845;23;20045;-84
2023/08/05 05:14:43;;;;;;;7.00;3.22;;;;;;;;;;6095939;23;20018;-84
2023/08/05 05:17:10;;;;;;;5.40;3.15;;;;;;;;;;6122351;23;20494;-84
2023/08/05 05:19:36;;;;;;;9.10;4.78;;;;;;;;;;6122155;23;20330;-84
2023/08/05 05:22:02;;;;;;;11.35;4.40;;;;;;;;;;6096627;23;20043;-84
2023/08/05 05:24:29;;;;;;;9.63;4.13;;;;;;;;;;6122011;23;20045;-85
2023/08/05 05:26:57;;;;;;;9.10;4.07;;;;;;;;;;6096501;23;20110;-84
2023/08/05 05:29:26;;;;;;;7.82;3.80;;;;;;;;;;6094671;23;20014;-85
2023/08/05 05:31:55;;;;;;;9.20;4.32;;;;;;;;;;6095244;23;20037;-85
2023/08/05 05:34:21;;;;;;;7.45;4.00;;;;;;;;;;6092956;23;20016;-84
2023/08/05 05:36:53;;;;;;;8.85;4.38;;;;;;;;;;6095506;23;20021;-84
2023/08/05 05:39:20;;;;;;;6.60;3.70;;;;;;;;;;6094613;23;20739;-84
2023/08/05 05:42:25;;;;;;;5.15;2.85;;;;;;;;;;6096253;23;20017;-85
2023/08/05 05:45:04;;;;;;;8.55;3.40;;;;;;;;;;6120196;23;20101;-85
2023/08/05 05:47:32;;;;;;;8.55;3.65;;;;;;;;;;6061080;23;20034;-84
2023/08/05 06:56:25;;;;;;;5.50;2.20;;;;;;;;;;6105187;23;20084;-84
2023/08/05 07:12:25;;;;;;;;;;;;;;;;;;;;;
2023/08/05 07:48:59;;;;;;;;;;;;;;;;;;;;;
2023/08/05 07:51:24;;;;;;;3.00;1.30;;;;;;;;;;6150048;23;20024;-83
2023/08/05 07:53:52;;;;;;;1.88;1.10;;;;;;;;;;6133290;23;20045;-82
2023/08/05 07:56:22;;;;;;;3.28;1.08;;;;;;;;;;6149882;23;20010;-83
2023/08/05 07:58:48;;;;;;;4.05;1.40;;;;;;;;;;6152002;23;20017;-82
2023/08/05 08:01:23;;;;;;;2.17;0.80;;;;;;;;;;6150444;23;20002;-83
2023/08/05 08:04:03;;;;;;;3.03;1.00;;;;;;;;;;6151017;23;20029;-82
2023/08/05 08:12:13;;;;;;;2.97;0.88;;;;;;;;;;6115761;23;20023;-82
2023/08/05 08:14:41;;;;;;;1.73;0.70;;;;;;;;;;6066840;23;20018;-82
2023/08/05 08:17:17;;;;;;;2.40;0.90;;;;;;;;;;6068275;23;20014;-83
2023/08/05 08:19:52;;;;;;;2.95;0.90;;;;;;;;;;6066827;23;20018;-82
2023/08/05 08:22:28;;;;;;;2.20;1.00;;;;;;;;;;6068007;23;20018;-84
2023/08/05 08:25:00;;;;;;;2.55;0.98;;;;;;;;;;6092871;23;20410;-83
2023/08/05 08:27:28;;;;;;;3.55;1.10;;;;;;;;;;6066118;23;20338;-84
2023/08/05 08:29:56;;;;;;;2.38;0.80;;;;;;;;;;6064650;23;20018;-85
2023/08/05 08:32:25;;;;;;;3.05;1.08;;;;;;;;;;6092326;23;20026;-84
2023/08/05 08:34:51;;;;;;;8.02;2.10;;;;;;;;;;6066338;23;20387;-84
2023/08/05 08:37:17;;;;;;;1.92;1.02;;;;;;;;;;6069269;23;20014;-83
2023/08/05 08:39:43;;;;;;;4.95;1.45;;;;;;;;;;6068792;23;20014;-84
2023/08/05 08:42:10;;;;;;;4.43;1.60;;;;;;;;;;6069265;23;20053;-82
2023/08/05 08:44:42;;;;;;;3.33;1.02;;;;;;;;;;6094313;23;20014;-84
2023/08/05 08:47:11;;;;;;;5.40;1.77;;;;;;;;;;6067174;23;20430;-84
2023/08/05 08:49:37;;;;;;;2.92;1.13;;;;;;;;;;6069281;23;20021;-85
2023/08/05 08:52:12;;;;;;;1.88;1.00;;;;;;;;;;6068997;23;20019;-85
2023/08/05 08:54:39;;;;;;;2.30;1.20;;;;;;;;;;6069383;23;20015;-84
2023/08/05 08:57:15;;;;;;;2.17;0.90;;;;;;;;;;6068476;23;20093;-84
2023/08/05 08:59:47;;;;;;;4.65;0.98;;;;;;;;;;6068650;23;20014;-84
2023/08/05 09:02:13;;;;;;;3.85;1.20;;;;;;;;;;6094425;23;20026;-84
2023/08/05 09:04:43;;;;;;;2.65;1.15;;;;;;;;;;6094458;23;20063;-84
2023/08/05 09:07:12;;;;;;;2.20;1.00;;;;;;;;;;6068472;23;20038;-85
2023/08/05 09:09:39;;;;;;;1.92;0.70;;;;;;;;;;6093963;23;20014;-85
2023/08/05 09:12:20;;;;;;;2.40;1.15;;;;;;;;;;6063898;23;20014;-86
2023/08/05 09:21:01;;;;;;;2.20;0.93;;;;;;;;;;6110450;23;20032;-84
2023/08/05 09:24:01;;;;;;;3.17;1.17;;;;;;;;;;6122865;23;20010;-84
2023/08/05 09:48:34;;;;;;;2.05;0.70;;;;;;;;;;6178697;23;20459;-85
2023/08/05 09:53:46;;;;;;;2.35;0.82;;;;;;;;;;6160954;23;20028;-86
2023/08/05 09:56:13;;;;;;;2.80;1.00;;;;;;;;;;6155753;23;20444;-85
2023/08/05 09:58:39;;;;;;;4.93;1.00;;;;;;;;;;6155939;23;20051;-85
2023/08/05 10:01:07;;;;;;;2.38;0.70;;;;;;;;;;6182089;23;20005;-84
2023/08/05 10:03:35;;;;;;;3.67;0.82;;;;;;;;;;6154749;23;20399;-84
2023/08/05 10:06:03;;;;;;;3.35;1.00;;;;;;;;;;6155397;23;20324;-85
2023/08/05 10:08:46;;;;;;;3.13;0.98;;;;;;;;;;6156627;23;20371;-84
2023/08/05 10:14:32;;;;;;;1.80;0.98;;;;;;;;;;6128455;23;20762;-86
2023/08/05 10:17:12;;;;;;;4.20;1.40;;;;;;;;;;6124508;23;20025;-86
2023/08/05 10:25:47;;;;;;;3.28;1.00;;;;;;;;;;6156436;23;20460;-87
2023/08/05 10:28:27;;;;;;;3.30;1.17;;;;;;;;;;6130405;23;20009;-87
2023/08/05 10:30:56;;;;;;;3.58;0.90;;;;;;;;;;6154083;23;20369;-86
2023/08/05 10:33:22;;;;;;;2.55;1.20;;;;;;;;;;6128571;23;20009;-86
2023/08/05 10:36:00;;;;;;;4.60;1.13;;;;;;;;;;6128818;23;20058;-87
2023/08/05 10:38:26;;;;;;;3.80;0.90;;;;;;;;;;6155237;23;20009;-89
2023/08/05 10:53:15;;;;;;;1.45;0.80;;;;;;;;;;6181306;23;20335;-85
2023/08/05 10:55:57;;;;;;;2.17;1.00;;;;;;;;;;6155692;23;20321;-83
2023/08/05 11:05:09;;;;;;;2.28;0.73;;;;;;;;;;5999938;23;20016;-85
2023/08/05 11:11:01;;;;;;;3.20;0.80;;;;;;;;;;6003637;23;20027;-85
